sensor_id;sensor_type;location;lat;lon;timestamp;P1;durP1;ratioP1;P2;durP2;ratioP2
30707;SDS011;17458;48.958;8.284;2022-11-23T00:01:44;6.10;;;2.10;;
30707;SDS011;17458;48.958;8.284;2022-11-23T00:04:28;4.82;;;2.20;;
30707;SDS011;17458;48.958;8.284;2022-11-23T00:07:12;9.65;;;2.88;;
30707;SDS011;17458;48.958;8.284;2022-11-23T00:09:56;6.78;;;2.53;;
30707;SDS011;17458;48.958;8.284;2022-11-23T00:12:40;6.85;;;2.40;;
30707;SDS011;17458;48.958;8.284;2022-11-23T00:15:24;6.55;;;2.10;;
30707;SDS011;17458;48.958;8.284;2022-11-23T00:18:09;9.73;;;2.42;;
30707;SDS011;17458;48.958;8.284;2022-11-23T00:20:53;4.05;;;2.15;;
30707;SDS011;17458;48.958;8.284;2022-11-23T00:23:37;3.08;;;2.22;;
30707;SDS011;17458;48.958;8.284;2022-11-23T00:26:21;4.13;;;1.88;;
30707;SDS011;17458;48.958;8.284;2022-11-23T00:29:05;6.38;;;2.50;;
30707;SDS011;17458;48.958;8.284;2022-11-23T00:31:49;6.20;;;2.67;;
30707;SDS011;17458;48.958;8.284;2022-11-23T00:34:33;8.88;;;2.70;;
30707;SDS011;17458;48.958;8.284;2022-11-23T00:37:17;6.60;;;2.28;;
30707;SDS011;17458;48.958;8.284;2022-11-23T00:40:01;3.85;;;2.05;;
30707;SDS011;17458;48.958;8.284;2022-11-23T00:42:44;8.45;;;2.35;;
30707;SDS011;17458;48.958;8.284;2022-11-23T00:45:28;9.93;;;2.65;;
30707;SDS011;17458;48.958;8.284;2022-11-23T00:48:12;4.75;;;2.00;;
30707;SDS011;17458;48.958;8.284;2022-11-23T00:50:56;2.45;;;2.08;;
30707;SDS011;17458;48.958;8.284;2022-11-23T00:53:40;8.43;;;2.60;;
30707;SDS011;17458;48.958;8.284;2022-11-23T00:56:25;5.60;;;2.05;;
30707;SDS011;17458;48.958;8.284;2022-11-23T00:59:09;6.05;;;2.08;;
30707;SDS011;17458;48.958;8.284;2022-11-23T01:01:55;9.32;;;2.38;;
30707;SDS011;17458;48.958;8.284;2022-11-23T01:04:39;5.82;;;2.05;;
30707;SDS011;17458;48.958;8.284;2022-11-23T01:07:23;4.43;;;2.08;;
30707;SDS011;17458;48.958;8.284;2022-11-23T01:10:07;5.78;;;2.13;;
30707;SDS011;17458;48.958;8.284;2022-11-23T01:12:51;2.60;;;2.05;;
30707;SDS011;17458;48.958;8.284;2022-11-23T01:15:35;1.98;;;1.88;;
30707;SDS011;17458;48.958;8.284;2022-11-23T01:18:19;5.28;;;1.75;;
30707;SDS011;17458;48.958;8.284;2022-11-23T01:21:03;5.45;;;2.10;;
30707;SDS011;17458;48.958;8.284;2022-11-23T01:23:47;3.08;;;1.80;;
30707;SDS011;17458;48.958;8.284;2022-11-23T01:26:31;5.97;;;2.08;;
30707;SDS011;17458;48.958;8.284;2022-11-23T01:29:15;3.20;;;2.00;;
30707;SDS011;17458;48.958;8.284;2022-11-23T01:31:59;7.22;;;2.15;;
30707;SDS011;17458;48.958;8.284;2022-11-23T01:34:44;3.45;;;2.00;;
30707;SDS011;17458;48.958;8.284;2022-11-23T01:37:27;5.40;;;2.33;;
30707;SDS011;17458;48.958;8.284;2022-11-23T01:40:11;5.65;;;2.72;;
30707;SDS011;17458;48.958;8.284;2022-11-23T01:45:52;2.90;;;1.90;;
30707;SDS011;17458;48.958;8.284;2022-11-23T01:49:13;4.30;;;1.90;;
30707;SDS011;17458;48.958;8.284;2022-11-23T01:51:51;8.07;;;2.40;;
30707;SDS011;17458;48.958;8.284;2022-11-23T01:54:38;5.10;;;2.00;;
30707;SDS011;17458;48.958;8.284;2022-11-23T01:57:30;7.30;;;1.98;;
30707;SDS011;17458;48.958;8.284;2022-11-23T02:00:18;3.47;;;1.90;;
30707;SDS011;17458;48.958;8.284;2022-11-23T02:03:03;3.10;;;2.08;;
30707;SDS011;17458;48.958;8.284;2022-11-23T02:05:52;4.50;;;2.40;;
30707;SDS011;17458;48.958;8.284;2022-11-23T02:08:43;7.68;;;1.85;;
30707;SDS011;17458;48.958;8.284;2022-11-23T02:11:28;3.55;;;1.83;;
30707;SDS011;17458;48.958;8.284;2022-11-23T02:14:12;6.03;;;2.45;;
30707;SDS011;17458;48.958;8.284;2022-11-23T02:16:59;2.45;;;1.50;;
30707;SDS011;17458;48.958;8.284;2022-11-23T02:19:52;9.43;;;2.10;;
30707;SDS011;17458;48.958;8.284;2022-11-23T02:22:52;6.07;;;1.92;;
30707;SDS011;17458;48.958;8.284;2022-11-23T02:25:47;4.25;;;2.17;;
30707;SDS011;17458;48.958;8.284;2022-11-23T02:28:49;4.90;;;1.73;;
30707;SDS011;17458;48.958;8.284;2022-11-23T02:31:38;3.75;;;1.95;;
30707;SDS011;17458;48.958;8.284;2022-11-23T02:34:21;5.50;;;2.40;;
30707;SDS011;17458;48.958;8.284;2022-11-23T02:37:07;6.05;;;2.17;;
30707;SDS011;17458;48.958;8.284;2022-11-23T02:39:51;4.78;;;2.20;;
30707;SDS011;17458;48.958;8.284;2022-11-23T02:42:39;6.57;;;2.40;;
30707;SDS011;17458;48.958;8.284;2022-11-23T02:45:32;5.72;;;2.58;;
30707;SDS011;17458;48.958;8.284;2022-11-23T02:48:20;6.82;;;2.05;;
30707;SDS011;17458;48.958;8.284;2022-11-23T02:51:04;3.63;;;2.35;;
30707;SDS011;17458;48.958;8.284;2022-11-23T02:53:48;2.78;;;1.70;;
30707;SDS011;17458;48.958;8.284;2022-11-23T02:56:33;5.15;;;1.98;;
30707;SDS011;17458;48.958;8.284;2022-11-23T02:59:17;9.25;;;2.25;;
30707;SDS011;17458;48.958;8.284;2022-11-23T03:02:04;3.88;;;2.10;;
30707;SDS011;17458;48.958;8.284;2022-11-23T03:04:48;12.75;;;2.40;;
30707;SDS011;17458;48.958;8.284;2022-11-23T03:07:36;5.20;;;2.22;;
30707;SDS011;17458;48.958;8.284;2022-11-23T03:10:20;4.68;;;1.83;;
30707;SDS011;17458;48.958;8.284;2022-11-23T03:13:07;3.65;;;2.38;;
30707;SDS011;17458;48.958;8.284;2022-11-23T03:15:54;4.82;;;2.17;;
30707;SDS011;17458;48.958;8.284;2022-11-23T03:18:43;3.90;;;1.98;;
30707;SDS011;17458;48.958;8.284;2022-11-23T03:21:27;3.42;;;2.30;;
30707;SDS011;17458;48.958;8.284;2022-11-23T03:24:11;3.67;;;2.53;;
30707;SDS011;17458;48.958;8.284;2022-11-23T03:26:57;4.72;;;2.05;;
30707;SDS011;17458;48.958;8.284;2022-11-23T03:29:41;7.80;;;2.25;;
30707;SDS011;17458;48.958;8.284;2022-11-23T03:32:31;4.43;;;1.83;;
30707;SDS011;17458;48.958;8.284;2022-11-23T03:35:15;6.93;;;2.60;;
30707;SDS011;17458;48.958;8.284;2022-11-23T03:38:19;6.78;;;2.33;;
30707;SDS011;17458;48.958;8.284;2022-11-23T03:41:03;5.70;;;2.28;;
30707;SDS011;17458;48.958;8.284;2022-11-23T03:44:01;8.02;;;2.63;;
30707;SDS011;17458;48.958;8.284;2022-11-23T03:46:45;4.05;;;1.90;;
30707;SDS011;17458;48.958;8.284;2022-11-23T03:49:29;4.30;;;2.10;;
30707;SDS011;17458;48.958;8.284;2022-11-23T03:52:14;5.00;;;1.83;;
30707;SDS011;17458;48.958;8.284;2022-11-23T03:55:00;9.20;;;2.67;;
30707;SDS011;17458;48.958;8.284;2022-11-23T03:57:46;12.02;;;2.67;;
30707;SDS011;17458;48.958;8.284;2022-11-23T04:00:31;4.60;;;2.28;;
30707;SDS011;17458;48.958;8.284;2022-11-23T04:03:16;7.95;;;2.78;;
30707;SDS011;17458;48.958;8.284;2022-11-23T04:06:33;4.25;;;2.25;;
30707;SDS011;17458;48.958;8.284;2022-11-23T04:09:21;5.75;;;2.03;;
30707;SDS011;17458;48.958;8.284;2022-11-23T04:12:27;2.97;;;1.83;;
30707;SDS011;17458;48.958;8.284;2022-11-23T04:15:12;5.20;;;2.20;;
30707;SDS011;17458;48.958;8.284;2022-11-23T04:17:56;3.40;;;2.03;;
30707;SDS011;17458;48.958;8.284;2022-11-23T04:20:40;8.27;;;2.63;;
30707;SDS011;17458;48.958;8.284;2022-11-23T04:23:24;4.45;;;2.40;;
30707;SDS011;17458;48.958;8.284;2022-11-23T04:26:08;7.70;;;2.65;;
30707;SDS011;17458;48.958;8.284;2022-11-23T04:28:56;3.85;;;2.05;;
30707;SDS011;17458;48.958;8.284;2022-11-23T04:31:40;7.13;;;2.33;;
30707;SDS011;17458;48.958;8.284;2022-11-23T04:34:29;3.33;;;2.35;;
30707;SDS011;17458;48.958;8.284;2022-11-23T04:37:12;7.60;;;2.63;;
30707;SDS011;17458;48.958;8.284;2022-11-23T04:39:58;5.15;;;2.40;;
30707;SDS011;17458;48.958;8.284;2022-11-23T04:42:53;9.13;;;2.45;;
30707;SDS011;17458;48.958;8.284;2022-11-23T04:45:37;5.35;;;3.05;;
30707;SDS011;17458;48.958;8.284;2022-11-23T04:48:25;7.22;;;2.70;;
30707;SDS011;17458;48.958;8.284;2022-11-23T04:51:11;8.48;;;2.75;;
30707;SDS011;17458;48.958;8.284;2022-11-23T04:53:56;3.70;;;2.40;;
30707;SDS011;17458;48.958;8.284;2022-11-23T04:56:43;11.23;;;2.60;;
30707;SDS011;17458;48.958;8.284;2022-11-23T04:59:27;4.95;;;2.50;;
30707;SDS011;17458;48.958;8.284;2022-11-23T05:02:11;10.25;;;3.13;;
30707;SDS011;17458;48.958;8.284;2022-11-23T05:05:08;7.55;;;2.92;;
30707;SDS011;17458;48.958;8.284;2022-11-23T05:07:52;9.43;;;3.42;;
30707;SDS011;17458;48.958;8.284;2022-11-23T05:10:39;6.22;;;2.95;;
30707;SDS011;17458;48.958;8.284;2022-11-23T05:13:23;6.22;;;3.05;;
30707;SDS011;17458;48.958;8.284;2022-11-23T05:16:08;7.47;;;3.05;;
30707;SDS011;17458;48.958;8.284;2022-11-23T05:18:52;7.80;;;3.42;;
30707;SDS011;17458;48.958;8.284;2022-11-23T05:21:36;6.72;;;2.85;;
30707;SDS011;17458;48.958;8.284;2022-11-23T05:24:21;6.40;;;2.97;;
30707;SDS011;17458;48.958;8.284;2022-11-23T05:27:18;5.78;;;3.55;;
30707;SDS011;17458;48.958;8.284;2022-11-23T05:30:03;4.97;;;2.53;;
30707;SDS011;17458;48.958;8.284;2022-11-23T05:32:48;6.63;;;2.88;;
30707;SDS011;17458;48.958;8.284;2022-11-23T05:35:34;10.90;;;3.67;;
30707;SDS011;17458;48.958;8.284;2022-11-23T05:38:20;6.30;;;3.28;;
30707;SDS011;17458;48.958;8.284;2022-11-23T05:41:04;7.43;;;3.10;;
30707;SDS011;17458;48.958;8.284;2022-11-23T05:43:49;6.75;;;3.65;;
30707;SDS011;17458;48.958;8.284;2022-11-23T05:46:39;5.28;;;2.70;;
30707;SDS011;17458;48.958;8.284;2022-11-23T05:49:24;12.43;;;3.38;;
30707;SDS011;17458;48.958;8.284;2022-11-23T05:52:08;10.13;;;3.20;;
30707;SDS011;17458;48.958;8.284;2022-11-23T05:54:55;7.95;;;3.35;;
30707;SDS011;17458;48.958;8.284;2022-11-23T05:57:40;7.20;;;3.90;;
30707;SDS011;17458;48.958;8.284;2022-11-23T06:00:24;9.90;;;3.85;;
30707;SDS011;17458;48.958;8.284;2022-11-23T06:03:15;6.50;;;3.47;;
30707;SDS011;17458;48.958;8.284;2022-11-23T06:05:59;15.57;;;6.07;;
30707;SDS011;17458;48.958;8.284;2022-11-23T06:08:50;7.38;;;3.65;;
30707;SDS011;17458;48.958;8.284;2022-11-23T06:11:35;5.20;;;3.45;;
30707;SDS011;17458;48.958;8.284;2022-11-23T06:14:26;8.18;;;4.47;;
30707;SDS011;17458;48.958;8.284;2022-11-23T06:17:10;4.32;;;3.33;;
30707;SDS011;17458;48.958;8.284;2022-11-23T06:19:59;6.10;;;3.85;;
30707;SDS011;17458;48.958;8.284;2022-11-23T06:22:50;6.82;;;3.67;;
30707;SDS011;17458;48.958;8.284;2022-11-23T06:25:35;6.63;;;4.57;;
30707;SDS011;17458;48.958;8.284;2022-11-23T06:28:32;7.30;;;5.25;;
30707;SDS011;17458;48.958;8.284;2022-11-23T06:31:18;6.85;;;4.50;;
30707;SDS011;17458;48.958;8.284;2022-11-23T06:34:04;7.13;;;4.40;;
30707;SDS011;17458;48.958;8.284;2022-11-23T06:36:49;7.60;;;3.83;;
30707;SDS011;17458;48.958;8.284;2022-11-23T06:39:33;12.73;;;6.75;;
30707;SDS011;17458;48.958;8.284;2022-11-23T06:42:18;13.90;;;4.95;;
30707;SDS011;17458;48.958;8.284;2022-11-23T06:45:02;9.20;;;5.47;;
30707;SDS011;17458;48.958;8.284;2022-11-23T06:47:48;10.00;;;4.93;;
30707;SDS011;17458;48.958;8.284;2022-11-23T06:50:32;5.80;;;3.75;;
30707;SDS011;17458;48.958;8.284;2022-11-23T06:53:16;7.05;;;5.00;;
30707;SDS011;17458;48.958;8.284;2022-11-23T06:56:05;8.45;;;4.55;;
30707;SDS011;17458;48.958;8.284;2022-11-23T06:58:50;6.50;;;4.68;;
30707;SDS011;17458;48.958;8.284;2022-11-23T07:01:39;10.50;;;4.85;;
30707;SDS011;17458;48.958;8.284;2022-11-23T07:04:25;6.60;;;4.57;;
30707;SDS011;17458;48.958;8.284;2022-11-23T07:07:10;9.38;;;4.43;;
30707;SDS011;17458;48.958;8.284;2022-11-23T07:10:01;12.73;;;4.60;;
30707;SDS011;17458;48.958;8.284;2022-11-23T07:13:03;13.63;;;5.18;;
30707;SDS011;17458;48.958;8.284;2022-11-23T07:15:52;12.27;;;4.78;;
30707;SDS011;17458;48.958;8.284;2022-11-23T07:18:36;8.30;;;4.35;;
30707;SDS011;17458;48.958;8.284;2022-11-23T07:21:21;12.80;;;4.65;;
30707;SDS011;17458;48.958;8.284;2022-11-23T07:24:06;7.53;;;4.15;;
30707;SDS011;17458;48.958;8.284;2022-11-23T07:26:51;8.07;;;4.45;;
30707;SDS011;17458;48.958;8.284;2022-11-23T07:29:36;5.07;;;3.15;;
30707;SDS011;17458;48.958;8.284;2022-11-23T07:32:20;5.13;;;3.08;;
30707;SDS011;17458;48.958;8.284;2022-11-23T07:35:04;14.80;;;4.43;;
30707;SDS011;17458;48.958;8.284;2022-11-23T07:37:51;11.77;;;5.15;;
30707;SDS011;17458;48.958;8.284;2022-11-23T07:40:37;13.50;;;7.97;;
30707;SDS011;17458;48.958;8.284;2022-11-23T07:43:21;12.38;;;5.63;;
30707;SDS011;17458;48.958;8.284;2022-11-23T07:46:07;14.00;;;5.20;;
30707;SDS011;17458;48.958;8.284;2022-11-23T07:48:51;8.35;;;4.25;;
30707;SDS011;17458;48.958;8.284;2022-11-23T07:51:37;5.05;;;3.78;;
30707;SDS011;17458;48.958;8.284;2022-11-23T07:54:21;10.23;;;5.45;;
30707;SDS011;17458;48.958;8.284;2022-11-23T07:57:05;7.22;;;4.38;;
30707;SDS011;17458;48.958;8.284;2022-11-23T07:59:48;10.30;;;5.35;;
30707;SDS011;17458;48.958;8.284;2022-11-23T08:02:32;22.05;;;7.15;;
30707;SDS011;17458;48.958;8.284;2022-11-23T08:05:16;9.93;;;5.70;;
30707;SDS011;17458;48.958;8.284;2022-11-23T08:08:01;13.63;;;6.93;;
30707;SDS011;17458;48.958;8.284;2022-11-23T08:10:46;9.65;;;5.72;;
30707;SDS011;17458;48.958;8.284;2022-11-23T08:13:30;10.77;;;6.75;;
30707;SDS011;17458;48.958;8.284;2022-11-23T08:16:14;8.85;;;5.85;;
30707;SDS011;17458;48.958;8.284;2022-11-23T08:18:59;16.50;;;7.03;;
30707;SDS011;17458;48.958;8.284;2022-11-23T08:21:43;12.45;;;6.30;;
30707;SDS011;17458;48.958;8.284;2022-11-23T08:24:28;22.15;;;7.53;;
30707;SDS011;17458;48.958;8.284;2022-11-23T08:27:12;8.55;;;5.82;;
30707;SDS011;17458;48.958;8.284;2022-11-23T08:29:57;6.82;;;5.28;;
30707;SDS011;17458;48.958;8.284;2022-11-23T08:32:41;11.82;;;5.68;;
30707;SDS011;17458;48.958;8.284;2022-11-23T08:35:25;6.32;;;4.28;;
30707;SDS011;17458;48.958;8.284;2022-11-23T08:38:09;7.50;;;4.20;;
30707;SDS011;17458;48.958;8.284;2022-11-23T08:40:56;6.72;;;3.20;;
30707;SDS011;17458;48.958;8.284;2022-11-23T08:43:42;4.32;;;2.30;;
30707;SDS011;17458;48.958;8.284;2022-11-23T08:46:26;4.63;;;2.45;;
30707;SDS011;17458;48.958;8.284;2022-11-23T08:49:10;4.88;;;2.72;;
30707;SDS011;17458;48.958;8.284;2022-11-23T08:51:54;7.65;;;2.35;;
30707;SDS011;17458;48.958;8.284;2022-11-23T08:54:38;11.40;;;6.05;;
30707;SDS011;17458;48.958;8.284;2022-11-23T08:57:21;12.48;;;5.32;;
30707;SDS011;17458;48.958;8.284;2022-11-23T09:00:05;14.02;;;4.53;;
30707;SDS011;17458;48.958;8.284;2022-11-23T09:02:50;6.38;;;2.95;;
30707;SDS011;17458;48.958;8.284;2022-11-23T09:05:35;5.85;;;2.58;;
30707;SDS011;17458;48.958;8.284;2022-11-23T09:08:20;10.27;;;2.75;;
30707;SDS011;17458;48.958;8.284;2022-11-23T09:11:06;10.48;;;2.53;;
30707;SDS011;17458;48.958;8.284;2022-11-23T09:13:52;9.40;;;3.20;;
30707;SDS011;17458;48.958;8.284;2022-11-23T09:16:36;6.55;;;3.67;;
30707;SDS011;17458;48.958;8.284;2022-11-23T09:19:21;8.70;;;2.67;;
30707;SDS011;17458;48.958;8.284;2022-11-23T09:22:05;5.78;;;2.13;;
30707;SDS011;17458;48.958;8.284;2022-11-23T09:24:49;4.40;;;1.98;;
30707;SDS011;17458;48.958;8.284;2022-11-23T09:27:33;6.35;;;1.92;;
30707;SDS011;17458;48.958;8.284;2022-11-23T09:30:17;7.22;;;2.90;;
30707;SDS011;17458;48.958;8.284;2022-11-23T09:33:01;5.07;;;1.80;;
30707;SDS011;17458;48.958;8.284;2022-11-23T09:35:45;8.77;;;2.38;;
30707;SDS011;17458;48.958;8.284;2022-11-23T09:38:29;4.25;;;2.13;;
30707;SDS011;17458;48.958;8.284;2022-11-23T09:41:22;6.53;;;2.22;;
30707;SDS011;17458;48.958;8.284;2022-11-23T09:53:46;7.50;;;2.10;;
30707;SDS011;17458;48.958;8.284;2022-11-23T09:56:38;6.60;;;2.65;;
30707;SDS011;17458;48.958;8.284;2022-11-23T09:59:43;7.55;;;2.08;;
30707;SDS011;17458;48.958;8.284;2022-11-23T10:02:35;7.38;;;2.10;;
30707;SDS011;17458;48.958;8.284;2022-11-23T10:05:22;13.73;;;2.97;;
30707;SDS011;17458;48.958;8.284;2022-11-23T10:08:16;6.22;;;2.33;;
30707;SDS011;17458;48.958;8.284;2022-11-23T10:17:28;5.85;;;2.35;;
30707;SDS011;17458;48.958;8.284;2022-11-23T10:20:35;6.63;;;2.42;;
30707;SDS011;17458;48.958;8.284;2022-11-23T10:26:31;19.08;;;3.13;;
30707;SDS011;17458;48.958;8.284;2022-11-23T10:35:36;8.13;;;1.83;;
30707;SDS011;17458;48.958;8.284;2022-11-23T10:38:21;5.65;;;1.73;;
30707;SDS011;17458;48.958;8.284;2022-11-23T10:41:10;5.13;;;2.42;;
30707;SDS011;17458;48.958;8.284;2022-11-23T10:47:09;5.65;;;2.22;;
30707;SDS011;17458;48.958;8.284;2022-11-23T10:49:56;7.72;;;1.95;;
30707;SDS011;17458;48.958;8.284;2022-11-23T10:52:41;6.03;;;2.10;;
30707;SDS011;17458;48.958;8.284;2022-11-23T10:55:47;4.90;;;1.77;;
30707;SDS011;17458;48.958;8.284;2022-11-23T10:58:43;13.65;;;2.40;;
30707;SDS011;17458;48.958;8.284;2022-11-23T11:01:29;8.85;;;2.70;;
30707;SDS011;17458;48.958;8.284;2022-11-23T11:04:21;4.65;;;2.33;;
30707;SDS011;17458;48.958;8.284;2022-11-23T11:07:23;5.30;;;2.58;;
30707;SDS011;17458;48.958;8.284;2022-11-23T11:13:43;7.05;;;2.45;;
30707;SDS011;17458;48.958;8.284;2022-11-23T11:16:31;6.72;;;2.00;;
30707;SDS011;17458;48.958;8.284;2022-11-23T11:19:33;12.13;;;2.40;;
30707;SDS011;17458;48.958;8.284;2022-11-23T11:22:31;8.15;;;2.25;;
30707;SDS011;17458;48.958;8.284;2022-11-23T11:25:28;8.05;;;1.75;;
30707;SDS011;17458;48.958;8.284;2022-11-23T11:28:26;6.63;;;1.98;;
30707;SDS011;17458;48.958;8.284;2022-11-23T11:34:23;9.88;;;2.90;;
30707;SDS011;17458;48.958;8.284;2022-11-23T11:40:33;8.68;;;2.03;;
30707;SDS011;17458;48.958;8.284;2022-11-23T11:43:22;6.60;;;2.15;;
30707;SDS011;17458;48.958;8.284;2022-11-23T11:46:28;6.55;;;2.30;;
30707;SDS011;17458;48.958;8.284;2022-11-23T11:49:25;5.43;;;1.80;;
30707;SDS011;17458;48.958;8.284;2022-11-23T11:52:15;9.57;;;3.17;;
30707;SDS011;17458;48.958;8.284;2022-11-23T11:55:26;6.68;;;2.13;;
30707;SDS011;17458;48.958;8.284;2022-11-23T11:58:38;9.15;;;2.35;;
30707;SDS011;17458;48.958;8.284;2022-11-23T12:04:37;7.32;;;1.70;;
30707;SDS011;17458;48.958;8.284;2022-11-23T12:07:34;15.32;;;1.92;;
30707;SDS011;17458;48.958;8.284;2022-11-23T12:10:31;6.53;;;1.85;;
30707;SDS011;17458;48.958;8.284;2022-11-23T12:13:19;7.40;;;2.33;;
30707;SDS011;17458;48.958;8.284;2022-11-23T12:22:08;9.85;;;1.90;;
30707;SDS011;17458;48.958;8.284;2022-11-23T12:37:37;8.20;;;1.50;;
30707;SDS011;17458;48.958;8.284;2022-11-23T12:40:40;4.82;;;2.13;;
30707;SDS011;17458;48.958;8.284;2022-11-23T12:43:53;9.07;;;2.05;;
30707;SDS011;17458;48.958;8.284;2022-11-23T12:50:42;8.82;;;2.50;;
30707;SDS011;17458;48.958;8.284;2022-11-23T12:53:04;6.65;;;2.63;;
30707;SDS011;17458;48.958;8.284;2022-11-23T12:59:18;7.72;;;2.65;;
30707;SDS011;17458;48.958;8.284;2022-11-23T13:02:05;7.90;;;2.95;;
30707;SDS011;17458;48.958;8.284;2022-11-23T13:05:08;9.98;;;2.33;;
30707;SDS011;17458;48.958;8.284;2022-11-23T13:08:14;2.65;;;1.70;;
30707;SDS011;17458;48.958;8.284;2022-11-23T13:11:05;3.85;;;1.63;;
30707;SDS011;17458;48.958;8.284;2022-11-23T13:20:27;6.18;;;2.10;;
30707;SDS011;17458;48.958;8.284;2022-11-23T13:23:27;6.65;;;1.95;;
30707;SDS011;17458;48.958;8.284;2022-11-23T13:26:18;11.80;;;2.00;;
30707;SDS011;17458;48.958;8.284;2022-11-23T13:32:50;5.88;;;1.67;;
30707;SDS011;17458;48.958;8.284;2022-11-23T13:38:26;4.68;;;1.33;;
30707;SDS011;17458;48.958;8.284;2022-11-23T13:44:24;3.20;;;1.80;;
30707;SDS011;17458;48.958;8.284;2022-11-23T13:50:16;4.13;;;2.05;;
30707;SDS011;17458;48.958;8.284;2022-11-23T13:53:02;4.07;;;2.05;;
30707;SDS011;17458;48.958;8.284;2022-11-23T13:55:47;2.20;;;1.80;;
30707;SDS011;17458;48.958;8.284;2022-11-23T13:58:36;3.35;;;2.15;;
30707;SDS011;17458;48.958;8.284;2022-11-23T14:04:41;4.90;;;1.58;;
30707;SDS011;17458;48.958;8.284;2022-11-23T14:07:30;5.18;;;1.67;;
30707;SDS011;17458;48.958;8.284;2022-11-23T14:10:29;13.15;;;2.13;;
30707;SDS011;17458;48.958;8.284;2022-11-23T14:13:24;10.27;;;2.20;;
30707;SDS011;17458;48.958;8.284;2022-11-23T14:16:15;3.95;;;1.65;;
30707;SDS011;17458;48.958;8.284;2022-11-23T14:23:02;7.65;;;2.70;;
30707;SDS011;17458;48.958;8.284;2022-11-23T14:32:10;4.30;;;2.10;;
30707;SDS011;17458;48.958;8.284;2022-11-23T14:35:45;6.35;;;1.58;;
30707;SDS011;17458;48.958;8.284;2022-11-23T14:41:41;6.65;;;2.25;;
30707;SDS011;17458;48.958;8.284;2022-11-23T14:44:28;3.80;;;2.00;;
30707;SDS011;17458;48.958;8.284;2022-11-23T14:47:13;3.70;;;1.70;;
30707;SDS011;17458;48.958;8.284;2022-11-23T14:49:57;9.05;;;2.70;;
30707;SDS011;17458;48.958;8.284;2022-11-23T14:52:41;6.05;;;2.13;;
30707;SDS011;17458;48.958;8.284;2022-11-23T14:55:28;7.05;;;2.30;;
30707;SDS011;17458;48.958;8.284;2022-11-23T14:58:13;5.88;;;1.98;;
30707;SDS011;17458;48.958;8.284;2022-11-23T15:01:01;5.97;;;1.75;;
30707;SDS011;17458;48.958;8.284;2022-11-23T15:03:56;5.53;;;1.95;;
30707;SDS011;17458;48.958;8.284;2022-11-23T15:06:42;5.22;;;2.28;;
30707;SDS011;17458;48.958;8.284;2022-11-23T15:12:42;3.15;;;1.92;;
30707;SDS011;17458;48.958;8.284;2022-11-23T15:15:29;5.53;;;2.10;;
30707;SDS011;17458;48.958;8.284;2022-11-23T15:18:24;4.20;;;2.03;;
30707;SDS011;17458;48.958;8.284;2022-11-23T15:23:57;4.82;;;1.95;;
30707;SDS011;17458;48.958;8.284;2022-11-23T15:26:42;5.80;;;2.15;;
30707;SDS011;17458;48.958;8.284;2022-11-23T15:35:13;3.00;;;1.85;;
30707;SDS011;17458;48.958;8.284;2022-11-23T15:37:58;3.85;;;1.50;;
30707;SDS011;17458;48.958;8.284;2022-11-23T15:40:44;3.67;;;1.90;;
30707;SDS011;17458;48.958;8.284;2022-11-23T15:43:30;2.65;;;1.90;;
30707;SDS011;17458;48.958;8.284;2022-11-23T15:46:14;1.55;;;1.45;;
30707;SDS011;17458;48.958;8.284;2022-11-23T15:48:58;1.75;;;1.55;;
30707;SDS011;17458;48.958;8.284;2022-11-23T15:51:45;2.40;;;1.50;;
30707;SDS011;17458;48.958;8.284;2022-11-23T15:54:33;5.00;;;2.00;;
30707;SDS011;17458;48.958;8.284;2022-11-23T15:57:19;1.80;;;1.63;;
30707;SDS011;17458;48.958;8.284;2022-11-23T16:00:07;3.15;;;2.22;;
30707;SDS011;17458;48.958;8.284;2022-11-23T16:08:56;8.73;;;2.38;;
30707;SDS011;17458;48.958;8.284;2022-11-23T16:11:42;4.10;;;2.38;;
30707;SDS011;17458;48.958;8.284;2022-11-23T16:14:28;3.55;;;2.20;;
30707;SDS011;17458;48.958;8.284;2022-11-23T16:17:16;3.97;;;2.10;;
30707;SDS011;17458;48.958;8.284;2022-11-23T16:20:11;5.22;;;2.70;;
30707;SDS011;17458;48.958;8.284;2022-11-23T16:22:58;8.93;;;2.63;;
30707;SDS011;17458;48.958;8.284;2022-11-23T16:25:43;8.18;;;2.90;;
30707;SDS011;17458;48.958;8.284;2022-11-23T16:28:31;6.10;;;3.20;;
30707;SDS011;17458;48.958;8.284;2022-11-23T16:31:51;4.60;;;2.40;;
30707;SDS011;17458;48.958;8.284;2022-11-23T16:34:34;4.13;;;2.60;;
30707;SDS011;17458;48.958;8.284;2022-11-23T16:37:19;4.25;;;2.58;;
30707;SDS011;17458;48.958;8.284;2022-11-23T16:40:03;6.88;;;2.30;;
30707;SDS011;17458;48.958;8.284;2022-11-23T16:42:51;5.88;;;2.10;;
30707;SDS011;17458;48.958;8.284;2022-11-23T16:45:39;4.95;;;2.28;;
30707;SDS011;17458;48.958;8.284;2022-11-23T16:48:36;4.05;;;1.83;;
30707;SDS011;17458;48.958;8.284;2022-11-23T16:51:22;5.85;;;3.17;;
30707;SDS011;17458;48.958;8.284;2022-11-23T16:54:06;3.92;;;2.67;;
30707;SDS011;17458;48.958;8.284;2022-11-23T16:56:49;9.82;;;3.60;;
30707;SDS011;17458;48.958;8.284;2022-11-23T16:59:33;6.68;;;2.38;;
30707;SDS011;17458;48.958;8.284;2022-11-23T17:02:18;2.95;;;2.22;;
30707;SDS011;17458;48.958;8.284;2022-11-23T17:05:05;7.80;;;2.45;;
30707;SDS011;17458;48.958;8.284;2022-11-23T17:07:56;2.10;;;1.90;;
30707;SDS011;17458;48.958;8.284;2022-11-23T17:10:40;8.07;;;2.47;;
30707;SDS011;17458;48.958;8.284;2022-11-23T17:13:25;7.70;;;2.30;;
30707;SDS011;17458;48.958;8.284;2022-11-23T17:16:12;4.03;;;2.50;;
30707;SDS011;17458;48.958;8.284;2022-11-23T17:18:58;5.18;;;2.72;;
30707;SDS011;17458;48.958;8.284;2022-11-23T17:21:42;7.03;;;3.13;;
30707;SDS011;17458;48.958;8.284;2022-11-23T17:24:27;8.63;;;3.50;;
30707;SDS011;17458;48.958;8.284;2022-11-23T17:27:11;7.00;;;3.40;;
30707;SDS011;17458;48.958;8.284;2022-11-23T17:30:01;11.43;;;3.80;;
30707;SDS011;17458;48.958;8.284;2022-11-23T17:32:53;8.25;;;3.35;;
30707;SDS011;17458;48.958;8.284;2022-11-23T17:35:37;9.45;;;3.25;;
30707;SDS011;17458;48.958;8.284;2022-11-23T17:38:22;4.32;;;3.15;;
30707;SDS011;17458;48.958;8.284;2022-11-23T17:41:08;4.32;;;2.60;;
30707;SDS011;17458;48.958;8.284;2022-11-23T17:43:53;8.52;;;2.83;;
30707;SDS011;17458;48.958;8.284;2022-11-23T17:46:37;5.68;;;2.92;;
30707;SDS011;17458;48.958;8.284;2022-11-23T17:49:21;7.90;;;2.63;;
30707;SDS011;17458;48.958;8.284;2022-11-23T17:52:10;4.50;;;2.83;;
30707;SDS011;17458;48.958;8.284;2022-11-23T17:54:55;6.97;;;2.80;;
30707;SDS011;17458;48.958;8.284;2022-11-23T17:57:39;6.82;;;2.47;;
30707;SDS011;17458;48.958;8.284;2022-11-23T18:00:24;5.88;;;3.67;;
30707;SDS011;17458;48.958;8.284;2022-11-23T18:03:08;4.97;;;3.30;;
30707;SDS011;17458;48.958;8.284;2022-11-23T18:05:52;10.15;;;3.42;;
30707;SDS011;17458;48.958;8.284;2022-11-23T18:08:36;4.75;;;3.50;;
30707;SDS011;17458;48.958;8.284;2022-11-23T18:11:20;4.93;;;2.72;;
30707;SDS011;17458;48.958;8.284;2022-11-23T18:14:05;5.68;;;3.03;;
30707;SDS011;17458;48.958;8.284;2022-11-23T18:16:50;4.30;;;2.58;;
30707;SDS011;17458;48.958;8.284;2022-11-23T18:19:33;5.07;;;2.40;;
30707;SDS011;17458;48.958;8.284;2022-11-23T18:22:17;4.03;;;2.47;;
30707;SDS011;17458;48.958;8.284;2022-11-23T18:25:01;4.32;;;3.28;;
30707;SDS011;17458;48.958;8.284;2022-11-23T18:27:45;4.97;;;2.83;;
30707;SDS011;17458;48.958;8.284;2022-11-23T18:30:29;3.13;;;2.40;;
30707;SDS011;17458;48.958;8.284;2022-11-23T18:33:13;3.70;;;2.47;;
30707;SDS011;17458;48.958;8.284;2022-11-23T18:35:57;3.70;;;2.53;;
30707;SDS011;17458;48.958;8.284;2022-11-23T18:38:41;6.15;;;2.72;;
30707;SDS011;17458;48.958;8.284;2022-11-23T18:41:27;4.70;;;2.35;;
30707;SDS011;17458;48.958;8.284;2022-11-23T18:44:11;3.30;;;2.45;;
30707;SDS011;17458;48.958;8.284;2022-11-23T18:46:55;3.72;;;2.75;;
30707;SDS011;17458;48.958;8.284;2022-11-23T18:49:39;6.32;;;2.90;;
30707;SDS011;17458;48.958;8.284;2022-11-23T18:52:23;2.90;;;2.60;;